sensor_id;sensor_type;location;lat;lon;timestamp;P1;durP1;ratioP1;P2;durP2;ratioP2
48733;SDS011;34530;52.084;5.146;2022-07-06T00:00:29;4.72;;;1.40;;
48733;SDS011;34530;52.084;5.146;2022-07-06T00:02:54;3.85;;;1.52;;
48733;SDS011;34530;52.084;5.146;2022-07-06T00:05:20;6.28;;;1.38;;
48733;SDS011;34530;52.084;5.146;2022-07-06T00:07:45;2.75;;;1.13;;
48733;SDS011;34530;52.084;5.146;2022-07-06T00:10:11;3.83;;;1.17;;
48733;SDS011;34530;52.084;5.146;2022-07-06T00:12:37;3.70;;;1.40;;
48733;SDS011;34530;52.084;5.146;2022-07-06T00:15:02;2.53;;;0.98;;
48733;SDS011;34530;52.084;5.146;2022-07-06T00:17:28;2.92;;;1.00;;
48733;SDS011;34530;52.084;5.146;2022-07-06T00:19:54;3.55;;;1.40;;
48733;SDS011;34530;52.084;5.146;2022-07-06T00:22:19;2.58;;;0.90;;
48733;SDS011;34530;52.084;5.146;2022-07-06T00:24:45;2.70;;;1.10;;
48733;SDS011;34530;52.084;5.146;2022-07-06T00:27:10;4.53;;;1.33;;
48733;SDS011;34530;52.084;5.146;2022-07-06T00:29:36;4.07;;;1.73;;
48733;SDS011;34530;52.084;5.146;2022-07-06T00:32:02;2.20;;;0.95;;
48733;SDS011;34530;52.084;5.146;2022-07-06T00:34:27;3.95;;;1.10;;
48733;SDS011;34530;52.084;5.146;2022-07-06T00:36:53;4.53;;;1.30;;
48733;SDS011;34530;52.084;5.146;2022-07-06T00:39:19;2.17;;;0.90;;
48733;SDS011;34530;52.084;5.146;2022-07-06T00:41:46;3.17;;;1.10;;
48733;SDS011;34530;52.084;5.146;2022-07-06T00:44:11;2.95;;;0.85;;
48733;SDS011;34530;52.084;5.146;2022-07-06T00:46:37;4.28;;;1.33;;
48733;SDS011;34530;52.084;5.146;2022-07-06T00:49:02;4.40;;;1.30;;
48733;SDS011;34530;52.084;5.146;2022-07-06T00:51:29;5.90;;;1.35;;
48733;SDS011;34530;52.084;5.146;2022-07-06T00:53:58;3.40;;;1.20;;
48733;SDS011;34530;52.084;5.146;2022-07-06T00:56:26;3.95;;;1.30;;
48733;SDS011;34530;52.084;5.146;2022-07-06T00:58:54;2.42;;;0.95;;
48733;SDS011;34530;52.084;5.146;2022-07-06T01:01:20;2.50;;;1.02;;
48733;SDS011;34530;52.084;5.146;2022-07-06T01:03:46;3.92;;;1.17;;
48733;SDS011;34530;52.084;5.146;2022-07-06T01:06:11;2.88;;;1.13;;
48733;SDS011;34530;52.084;5.146;2022-07-06T01:08:37;1.63;;;0.90;;
48733;SDS011;34530;52.084;5.146;2022-07-06T01:11:03;3.53;;;1.20;;
48733;SDS011;34530;52.084;5.146;2022-07-06T01:13:30;2.95;;;1.10;;
48733;SDS011;34530;52.084;5.146;2022-07-06T01:15:57;3.03;;;0.98;;
48733;SDS011;34530;52.084;5.146;2022-07-06T01:18:23;2.53;;;1.00;;
48733;SDS011;34530;52.084;5.146;2022-07-06T01:20:49;1.95;;;1.10;;
48733;SDS011;34530;52.084;5.146;2022-07-06T01:23:14;1.75;;;1.20;;
48733;SDS011;34530;52.084;5.146;2022-07-06T01:25:40;3.53;;;1.00;;
48733;SDS011;34530;52.084;5.146;2022-07-06T01:28:06;1.75;;;0.90;;
48733;SDS011;34530;52.084;5.146;2022-07-06T01:30:31;3.08;;;1.10;;
48733;SDS011;34530;52.084;5.146;2022-07-06T01:32:58;2.10;;;0.88;;
48733;SDS011;34530;52.084;5.146;2022-07-06T01:35:23;2.40;;;0.85;;
48733;SDS011;34530;52.084;5.146;2022-07-06T01:37:51;1.23;;;1.00;;
48733;SDS011;34530;52.084;5.146;2022-07-06T01:40:16;2.58;;;0.90;;
48733;SDS011;34530;52.084;5.146;2022-07-06T01:42:42;2.00;;;1.20;;
48733;SDS011;34530;52.084;5.146;2022-07-06T01:45:08;1.45;;;0.85;;
48733;SDS011;34530;52.084;5.146;2022-07-06T01:47:34;1.52;;;0.75;;
48733;SDS011;34530;52.084;5.146;2022-07-06T01:50:01;2.40;;;1.00;;
48733;SDS011;34530;52.084;5.146;2022-07-06T01:52:29;5.55;;;1.23;;
48733;SDS011;34530;52.084;5.146;2022-07-06T01:54:55;1.65;;;0.90;;
48733;SDS011;34530;52.084;5.146;2022-07-06T01:57:21;2.90;;;0.90;;
48733;SDS011;34530;52.084;5.146;2022-07-06T01:59:47;2.33;;;1.00;;
48733;SDS011;34530;52.084;5.146;2022-07-06T02:02:12;1.38;;;1.00;;
48733;SDS011;34530;52.084;5.146;2022-07-06T02:04:38;1.55;;;1.00;;
48733;SDS011;34530;52.084;5.146;2022-07-06T02:07:04;3.50;;;1.15;;
48733;SDS011;34530;52.084;5.146;2022-07-06T02:09:29;3.35;;;1.15;;
48733;SDS011;34530;52.084;5.146;2022-07-06T02:11:55;2.50;;;1.17;;
48733;SDS011;34530;52.084;5.146;2022-07-06T02:14:21;3.47;;;1.25;;
48733;SDS011;34530;52.084;5.146;2022-07-06T02:16:46;3.53;;;1.00;;
48733;SDS011;34530;52.084;5.146;2022-07-06T02:19:12;3.30;;;1.13;;
48733;SDS011;34530;52.084;5.146;2022-07-06T02:21:37;3.25;;;0.82;;
48733;SDS011;34530;52.084;5.146;2022-07-06T02:24:03;4.70;;;1.08;;
48733;SDS011;34530;52.084;5.146;2022-07-06T02:26:29;2.10;;;0.70;;
48733;SDS011;34530;52.084;5.146;2022-07-06T02:28:54;1.80;;;0.80;;
48733;SDS011;34530;52.084;5.146;2022-07-06T02:31:20;1.02;;;0.80;;
48733;SDS011;34530;52.084;5.146;2022-07-06T02:33:46;2.65;;;1.20;;
48733;SDS011;34530;52.084;5.146;2022-07-06T02:36:11;1.98;;;0.95;;
48733;SDS011;34530;52.084;5.146;2022-07-06T02:38:37;2.05;;;0.85;;
48733;SDS011;34530;52.084;5.146;2022-07-06T02:41:02;1.85;;;0.73;;
48733;SDS011;34530;52.084;5.146;2022-07-06T02:43:28;2.25;;;1.13;;
48733;SDS011;34530;52.084;5.146;2022-07-06T02:45:54;1.80;;;0.80;;
48733;SDS011;34530;52.084;5.146;2022-07-06T02:48:19;1.95;;;0.90;;
48733;SDS011;34530;52.084;5.146;2022-07-06T02:50:46;4.80;;;0.90;;
48733;SDS011;34530;52.084;5.146;2022-07-06T02:53:12;3.90;;;1.05;;
48733;SDS011;34530;52.084;5.146;2022-07-06T02:55:38;1.52;;;0.90;;
48733;SDS011;34530;52.084;5.146;2022-07-06T02:58:03;2.13;;;0.80;;
48733;SDS011;34530;52.084;5.146;2022-07-06T03:00:29;3.90;;;0.90;;
48733;SDS011;34530;52.084;5.146;2022-07-06T03:02:54;4.13;;;1.08;;
48733;SDS011;34530;52.084;5.146;2022-07-06T03:05:20;2.55;;;1.00;;
48733;SDS011;34530;52.084;5.146;2022-07-06T03:07:46;3.65;;;1.17;;
48733;SDS011;34530;52.084;5.146;2022-07-06T03:10:11;1.98;;;0.82;;
48733;SDS011;34530;52.084;5.146;2022-07-06T03:12:37;3.92;;;1.10;;
48733;SDS011;34530;52.084;5.146;2022-07-06T03:15:03;3.22;;;1.20;;
48733;SDS011;34530;52.084;5.146;2022-07-06T03:17:28;3.22;;;1.05;;
48733;SDS011;34530;52.084;5.146;2022-07-06T03:19:54;3.75;;;1.10;;
48733;SDS011;34530;52.084;5.146;2022-07-06T03:22:19;2.17;;;0.82;;
48733;SDS011;34530;52.084;5.146;2022-07-06T03:24:45;2.25;;;0.80;;
48733;SDS011;34530;52.084;5.146;2022-07-06T03:27:11;1.13;;;0.70;;
48733;SDS011;34530;52.084;5.146;2022-07-06T03:29:36;3.40;;;0.90;;
48733;SDS011;34530;52.084;5.146;2022-07-06T03:32:02;1.50;;;0.90;;
48733;SDS011;34530;52.084;5.146;2022-07-06T03:34:29;2.22;;;0.98;;
48733;SDS011;34530;52.084;5.146;2022-07-06T03:36:54;1.58;;;0.93;;
48733;SDS011;34530;52.084;5.146;2022-07-06T03:39:20;2.00;;;0.80;;
48733;SDS011;34530;52.084;5.146;2022-07-06T03:41:46;1.60;;;0.85;;
48733;SDS011;34530;52.084;5.146;2022-07-06T03:44:11;2.88;;;0.95;;
48733;SDS011;34530;52.084;5.146;2022-07-06T03:46:37;3.97;;;1.00;;
48733;SDS011;34530;52.084;5.146;2022-07-06T03:49:02;0.95;;;0.60;;
48733;SDS011;34530;52.084;5.146;2022-07-06T03:51:28;1.67;;;0.90;;
48733;SDS011;34530;52.084;5.146;2022-07-06T03:53:54;2.15;;;0.90;;
48733;SDS011;34530;52.084;5.146;2022-07-06T03:56:19;1.38;;;0.82;;
48733;SDS011;34530;52.084;5.146;2022-07-06T03:58:54;1.48;;;0.80;;
48733;SDS011;34530;52.084;5.146;2022-07-06T04:01:24;2.40;;;1.02;;
48733;SDS011;34530;52.084;5.146;2022-07-06T04:03:50;1.98;;;1.10;;
48733;SDS011;34530;52.084;5.146;2022-07-06T04:06:16;1.63;;;0.80;;
48733;SDS011;34530;52.084;5.146;2022-07-06T04:08:42;3.30;;;0.85;;
48733;SDS011;34530;52.084;5.146;2022-07-06T04:11:07;2.22;;;0.75;;
48733;SDS011;34530;52.084;5.146;2022-07-06T04:13:33;2.25;;;0.90;;
48733;SDS011;34530;52.084;5.146;2022-07-06T04:15:58;0.63;;;0.60;;
48733;SDS011;34530;52.084;5.146;2022-07-06T04:18:24;4.03;;;1.00;;
48733;SDS011;34530;52.084;5.146;2022-07-06T04:20:50;4.68;;;0.77;;
48733;SDS011;34530;52.084;5.146;2022-07-06T04:23:15;1.77;;;0.80;;
48733;SDS011;34530;52.084;5.146;2022-07-06T04:25:41;3.67;;;0.90;;
48733;SDS011;34530;52.084;5.146;2022-07-06T04:28:06;1.83;;;0.85;;
48733;SDS011;34530;52.084;5.146;2022-07-06T04:30:32;2.00;;;0.82;;
48733;SDS011;34530;52.084;5.146;2022-07-06T04:32:58;2.08;;;0.90;;
48733;SDS011;34530;52.084;5.146;2022-07-06T04:35:23;2.28;;;0.80;;
48733;SDS011;34530;52.084;5.146;2022-07-06T04:37:49;3.35;;;1.10;;
48733;SDS011;34530;52.084;5.146;2022-07-06T04:40:15;1.60;;;0.90;;
48733;SDS011;34530;52.084;5.146;2022-07-06T04:42:41;1.35;;;0.80;;
48733;SDS011;34530;52.084;5.146;2022-07-06T04:45:06;2.00;;;1.00;;
48733;SDS011;34530;52.084;5.146;2022-07-06T04:47:33;1.63;;;1.02;;
48733;SDS011;34530;52.084;5.146;2022-07-06T04:49:59;3.25;;;1.10;;
48733;SDS011;34530;52.084;5.146;2022-07-06T04:52:25;1.42;;;0.70;;
48733;SDS011;34530;52.084;5.146;2022-07-06T04:54:51;3.25;;;0.80;;
48733;SDS011;34530;52.084;5.146;2022-07-06T04:57:16;1.02;;;0.75;;
48733;SDS011;34530;52.084;5.146;2022-07-06T04:59:42;3.70;;;0.90;;
48733;SDS011;34530;52.084;5.146;2022-07-06T05:02:08;2.38;;;0.80;;
48733;SDS011;34530;52.084;5.146;2022-07-06T05:04:33;2.13;;;0.80;;
48733;SDS011;34530;52.084;5.146;2022-07-06T05:06:59;6.68;;;1.08;;
48733;SDS011;34530;52.084;5.146;2022-07-06T05:09:24;2.38;;;1.08;;
48733;SDS011;34530;52.084;5.146;2022-07-06T05:11:50;3.83;;;0.80;;
48733;SDS011;34530;52.084;5.146;2022-07-06T05:14:16;3.30;;;1.00;;
48733;SDS011;34530;52.084;5.146;2022-07-06T05:16:42;3.65;;;1.13;;
48733;SDS011;34530;52.084;5.146;2022-07-06T05:19:07;2.80;;;1.10;;
48733;SDS011;34530;52.084;5.146;2022-07-06T05:21:33;5.95;;;3.08;;
48733;SDS011;34530;52.084;5.146;2022-07-06T05:23:58;34.47;;;11.63;;
48733;SDS011;34530;52.084;5.146;2022-07-06T05:26:24;26.85;;;9.45;;
48733;SDS011;34530;52.084;5.146;2022-07-06T05:28:50;26.55;;;7.20;;
48733;SDS011;34530;52.084;5.146;2022-07-06T05:31:15;20.77;;;6.40;;
48733;SDS011;34530;52.084;5.146;2022-07-06T05:33:41;19.05;;;5.47;;
48733;SDS011;34530;52.084;5.146;2022-07-06T05:36:06;14.65;;;4.72;;
48733;SDS011;34530;52.084;5.146;2022-07-06T05:38:32;14.15;;;4.32;;
48733;SDS011;34530;52.084;5.146;2022-07-06T05:40:58;10.98;;;3.55;;
48733;SDS011;34530;52.084;5.146;2022-07-06T05:43:24;16.98;;;3.35;;
48733;SDS011;34530;52.084;5.146;2022-07-06T05:45:49;7.75;;;2.97;;
48733;SDS011;34530;52.084;5.146;2022-07-06T05:48:15;8.23;;;2.95;;
48733;SDS011;34530;52.084;5.146;2022-07-06T05:50:59;7.07;;;1.95;;
48733;SDS011;34530;52.084;5.146;2022-07-06T05:53:25;8.55;;;1.75;;
48733;SDS011;34530;52.084;5.146;2022-07-06T05:55:51;4.60;;;1.88;;
48733;SDS011;34530;52.084;5.146;2022-07-06T05:58:16;6.68;;;1.83;;
48733;SDS011;34530;52.084;5.146;2022-07-06T06:00:42;5.07;;;1.73;;
48733;SDS011;34530;52.084;5.146;2022-07-06T06:03:08;5.97;;;1.48;;
48733;SDS011;34530;52.084;5.146;2022-07-06T06:05:33;6.35;;;1.35;;
48733;SDS011;34530;52.084;5.146;2022-07-06T06:07:59;3.65;;;1.00;;
48733;SDS011;34530;52.084;5.146;2022-07-06T06:10:25;4.55;;;1.27;;
48733;SDS011;34530;52.084;5.146;2022-07-06T06:12:51;6.47;;;1.10;;
48733;SDS011;34530;52.084;5.146;2022-07-06T06:15:16;2.97;;;1.10;;
48733;SDS011;34530;52.084;5.146;2022-07-06T06:17:42;4.38;;;1.08;;
48733;SDS011;34530;52.084;5.146;2022-07-06T06:20:09;3.95;;;0.90;;
48733;SDS011;34530;52.084;5.146;2022-07-06T06:22:50;1.95;;;0.90;;
48733;SDS011;34530;52.084;5.146;2022-07-06T06:25:21;2.83;;;1.13;;
48733;SDS011;34530;52.084;5.146;2022-07-06T06:27:52;3.80;;;1.20;;
48733;SDS011;34530;52.084;5.146;2022-07-06T06:30:18;3.15;;;1.00;;
48733;SDS011;34530;52.084;5.146;2022-07-06T06:32:44;4.20;;;1.10;;
48733;SDS011;34530;52.084;5.146;2022-07-06T06:35:10;8.23;;;1.20;;
48733;SDS011;34530;52.084;5.146;2022-07-06T06:37:36;11.02;;;1.45;;
48733;SDS011;34530;52.084;5.146;2022-07-06T06:40:02;5.35;;;0.95;;
48733;SDS011;34530;52.084;5.146;2022-07-06T06:42:29;5.43;;;1.25;;
48733;SDS011;34530;52.084;5.146;2022-07-06T06:44:54;5.30;;;1.20;;
48733;SDS011;34530;52.084;5.146;2022-07-06T06:47:20;2.25;;;0.95;;
48733;SDS011;34530;52.084;5.146;2022-07-06T06:49:46;5.68;;;0.90;;
48733;SDS011;34530;52.084;5.146;2022-07-06T06:52:12;4.88;;;1.33;;
48733;SDS011;34530;52.084;5.146;2022-07-06T06:54:38;6.20;;;1.05;;
48733;SDS011;34530;52.084;5.146;2022-07-06T06:57:03;3.58;;;0.93;;
48733;SDS011;34530;52.084;5.146;2022-07-06T06:59:29;5.80;;;0.90;;
48733;SDS011;34530;52.084;5.146;2022-07-06T07:01:55;2.05;;;0.80;;
48733;SDS011;34530;52.084;5.146;2022-07-06T07:04:20;4.07;;;1.10;;
48733;SDS011;34530;52.084;5.146;2022-07-06T07:06:46;5.78;;;1.52;;
48733;SDS011;34530;52.084;5.146;2022-07-06T07:09:11;3.17;;;1.15;;
48733;SDS011;34530;52.084;5.146;2022-07-06T07:11:37;4.50;;;0.80;;
48733;SDS011;34530;52.084;5.146;2022-07-06T07:14:03;2.47;;;0.90;;
48733;SDS011;34530;52.084;5.146;2022-07-06T07:16:29;5.18;;;1.10;;
48733;SDS011;34530;52.084;5.146;2022-07-06T07:18:54;2.15;;;1.00;;
48733;SDS011;34530;52.084;5.146;2022-07-06T07:21:20;3.83;;;0.93;;
48733;SDS011;34530;52.084;5.146;2022-07-06T07:23:46;2.35;;;0.93;;
48733;SDS011;34530;52.084;5.146;2022-07-06T07:26:11;2.15;;;0.90;;
48733;SDS011;34530;52.084;5.146;2022-07-06T07:28:37;3.47;;;1.00;;
48733;SDS011;34530;52.084;5.146;2022-07-06T07:31:04;3.85;;;0.90;;
48733;SDS011;34530;52.084;5.146;2022-07-06T07:33:29;3.40;;;0.85;;
48733;SDS011;34530;52.084;5.146;2022-07-06T07:35:55;3.33;;;0.90;;
48733;SDS011;34530;52.084;5.146;2022-07-06T07:38:21;3.75;;;1.08;;
48733;SDS011;34530;52.084;5.146;2022-07-06T07:40:46;2.30;;;1.00;;
48733;SDS011;34530;52.084;5.146;2022-07-06T07:43:12;3.17;;;0.77;;
48733;SDS011;34530;52.084;5.146;2022-07-06T07:45:37;4.47;;;0.90;;
48733;SDS011;34530;52.084;5.146;2022-07-06T07:48:03;1.77;;;0.82;;
48733;SDS011;34530;52.084;5.146;2022-07-06T07:50:29;2.15;;;0.80;;
48733;SDS011;34530;52.084;5.146;2022-07-06T07:52:55;2.63;;;0.95;;
48733;SDS011;34530;52.084;5.146;2022-07-06T07:55:20;3.00;;;1.05;;
48733;SDS011;34530;52.084;5.146;2022-07-06T07:57:46;4.82;;;0.88;;
48733;SDS011;34530;52.084;5.146;2022-07-06T08:00:12;3.05;;;0.90;;
48733;SDS011;34530;52.084;5.146;2022-07-06T08:02:38;3.10;;;1.05;;
48733;SDS011;34530;52.084;5.146;2022-07-06T08:05:04;0.98;;;0.60;;
48733;SDS011;34530;52.084;5.146;2022-07-06T08:07:30;1.45;;;0.80;;
48733;SDS011;34530;52.084;5.146;2022-07-06T08:09:56;1.65;;;0.70;;
48733;SDS011;34530;52.084;5.146;2022-07-06T08:12:21;1.02;;;0.65;;
48733;SDS011;34530;52.084;5.146;2022-07-06T08:14:47;1.63;;;0.60;;
48733;SDS011;34530;52.084;5.146;2022-07-06T08:17:12;2.70;;;0.90;;
48733;SDS011;34530;52.084;5.146;2022-07-06T08:19:38;1.33;;;0.63;;
48733;SDS011;34530;52.084;5.146;2022-07-06T08:22:04;1.75;;;0.88;;
48733;SDS011;34530;52.084;5.146;2022-07-06T08:24:36;2.70;;;0.73;;
48733;SDS011;34530;52.084;5.146;2022-07-06T08:27:02;6.82;;;0.90;;
48733;SDS011;34530;52.084;5.146;2022-07-06T08:29:29;3.28;;;0.77;;
48733;SDS011;34530;52.084;5.146;2022-07-06T08:31:55;4.93;;;1.17;;
48733;SDS011;34530;52.084;5.146;2022-07-06T08:34:21;2.83;;;0.70;;
48733;SDS011;34530;52.084;5.146;2022-07-06T08:36:47;5.32;;;0.90;;
48733;SDS011;34530;52.084;5.146;2022-07-06T08:39:13;2.58;;;0.60;;
48733;SDS011;34530;52.084;5.146;2022-07-06T08:41:38;1.95;;;0.82;;
48733;SDS011;34530;52.084;5.146;2022-07-06T08:44:07;1.92;;;0.90;;
48733;SDS011;34530;52.084;5.146;2022-07-06T08:46:35;1.27;;;0.68;;
48733;SDS011;34530;52.084;5.146;2022-07-06T08:49:04;2.47;;;0.60;;
48733;SDS011;34530;52.084;5.146;2022-07-06T08:51:32;2.50;;;0.60;;
48733;SDS011;34530;52.084;5.146;2022-07-06T08:53:59;0.73;;;0.50;;
48733;SDS011;34530;52.084;5.146;2022-07-06T08:56:26;2.28;;;0.80;;
48733;SDS011;34530;52.084;5.146;2022-07-06T08:58:53;1.77;;;0.63;;
48733;SDS011;34530;52.084;5.146;2022-07-06T09:01:19;0.82;;;0.60;;
48733;SDS011;34530;52.084;5.146;2022-07-06T09:03:46;1.23;;;0.70;;
48733;SDS011;34530;52.084;5.146;2022-07-06T09:06:19;3.72;;;0.77;;
48733;SDS011;34530;52.084;5.146;2022-07-06T09:08:49;1.00;;;0.60;;
48733;SDS011;34530;52.084;5.146;2022-07-06T09:11:17;3.00;;;0.70;;
48733;SDS011;34530;52.084;5.146;2022-07-06T09:13:43;2.03;;;0.80;;
48733;SDS011;34530;52.084;5.146;2022-07-06T09:16:09;1.27;;;0.70;;
48733;SDS011;34530;52.084;5.146;2022-07-06T09:18:40;1.45;;;0.73;;
48733;SDS011;34530;52.084;5.146;2022-07-06T09:21:08;1.08;;;0.50;;
48733;SDS011;34530;52.084;5.146;2022-07-06T09:23:35;1.65;;;0.50;;
48733;SDS011;34530;52.084;5.146;2022-07-06T09:26:02;1.58;;;0.65;;
48733;SDS011;34530;52.084;5.146;2022-07-06T09:28:44;1.00;;;0.50;;
48733;SDS011;34530;52.084;5.146;2022-07-06T09:31:10;2.13;;;0.90;;
48733;SDS011;34530;52.084;5.146;2022-07-06T09:33:37;1.27;;;0.60;;
48733;SDS011;34530;52.084;5.146;2022-07-06T09:36:03;1.02;;;0.60;;
48733;SDS011;34530;52.084;5.146;2022-07-06T09:38:31;1.15;;;0.70;;
48733;SDS011;34530;52.084;5.146;2022-07-06T09:40:56;2.35;;;0.75;;
48733;SDS011;34530;52.084;5.146;2022-07-06T09:43:23;2.90;;;0.60;;
48733;SDS011;34530;52.084;5.146;2022-07-06T09:45:53;1.48;;;0.60;;
48733;SDS011;34530;52.084;5.146;2022-07-06T09:48:29;3.20;;;0.70;;
48733;SDS011;34530;52.084;5.146;2022-07-06T09:50:58;1.30;;;0.75;;
48733;SDS011;34530;52.084;5.146;2022-07-06T09:53:27;3.63;;;0.82;;
48733;SDS011;34530;52.084;5.146;2022-07-06T09:55:54;1.05;;;0.60;;
48733;SDS011;34530;52.084;5.146;2022-07-06T09:58:23;2.08;;;0.70;;
48733;SDS011;34530;52.084;5.146;2022-07-06T10:00:49;1.65;;;0.70;;
48733;SDS011;34530;52.084;5.146;2022-07-06T10:03:15;1.60;;;0.50;;
48733;SDS011;34530;52.084;5.146;2022-07-06T10:05:45;2.25;;;0.90;;
48733;SDS011;34530;52.084;5.146;2022-07-06T10:08:13;2.38;;;0.80;;
48733;SDS011;34530;52.084;5.146;2022-07-06T10:10:40;0.55;;;0.50;;
48733;SDS011;34530;52.084;5.146;2022-07-06T10:13:07;2.97;;;0.80;;
48733;SDS011;34530;52.084;5.146;2022-07-06T10:15:35;4.15;;;0.80;;
48733;SDS011;34530;52.084;5.146;2022-07-06T10:18:03;2.80;;;0.88;;
48733;SDS011;34530;52.084;5.146;2022-07-06T10:20:31;3.42;;;0.70;;
48733;SDS011;34530;52.084;5.146;2022-07-06T10:22:59;0.63;;;0.63;;
48733;SDS011;34530;52.084;5.146;2022-07-06T10:25:26;1.40;;;0.70;;
48733;SDS011;34530;52.084;5.146;2022-07-06T10:27:53;1.80;;;0.63;;
48733;SDS011;34530;52.084;5.146;2022-07-06T10:30:19;1.42;;;0.80;;
48733;SDS011;34530;52.084;5.146;2022-07-06T10:32:46;1.63;;;0.70;;
48733;SDS011;34530;52.084;5.146;2022-07-06T10:35:14;1.38;;;0.70;;
48733;SDS011;34530;52.084;5.146;2022-07-06T10:37:41;1.17;;;0.70;;
48733;SDS011;34530;52.084;5.146;2022-07-06T10:40:07;1.60;;;0.90;;
48733;SDS011;34530;52.084;5.146;2022-07-06T10:42:56;2.08;;;0.80;;
48733;SDS011;34530;52.084;5.146;2022-07-06T10:50:38;20.40;;;5.18;;
48733;SDS011;34530;52.084;5.146;2022-07-06T10:53:14;15.80;;;4.28;;
48733;SDS011;34530;52.084;5.146;2022-07-06T10:55:46;16.38;;;4.07;;
48733;SDS011;34530;52.084;5.146;2022-07-06T10:58:15;10.55;;;2.97;;
48733;SDS011;34530;52.084;5.146;2022-07-06T11:00:58;12.15;;;2.97;;
48733;SDS011;34530;52.084;5.146;2022-07-06T11:06:10;7.07;;;1.98;;
48733;SDS011;34530;52.084;5.146;2022-07-06T11:08:44;20.25;;;5.78;;
48733;SDS011;34530;52.084;5.146;2022-07-06T11:13:51;13.68;;;4.47;;
48733;SDS011;34530;52.084;5.146;2022-07-06T11:16:19;11.60;;;3.28;;
48733;SDS011;34530;52.084;5.146;2022-07-06T11:18:47;12.85;;;3.58;;
48733;SDS011;34530;52.084;5.146;2022-07-06T11:21:15;12.57;;;2.58;;
48733;SDS011;34530;52.084;5.146;2022-07-06T11:23:45;7.25;;;1.67;;
48733;SDS011;34530;52.084;5.146;2022-07-06T11:26:12;5.88;;;1.83;;
48733;SDS011;34530;52.084;5.146;2022-07-06T11:28:39;5.55;;;1.30;;
48733;SDS011;34530;52.084;5.146;2022-07-06T11:31:04;3.35;;;1.17;;
48733;SDS011;34530;52.084;5.146;2022-07-06T11:33:30;5.10;;;1.45;;
48733;SDS011;34530;52.084;5.146;2022-07-06T11:36:13;2.70;;;1.10;;
48733;SDS011;34530;52.084;5.146;2022-07-06T11:38:38;4.25;;;1.42;;
48733;SDS011;34530;52.084;5.146;2022-07-06T11:41:05;5.57;;;1.10;;
48733;SDS011;34530;52.084;5.146;2022-07-06T11:43:30;3.80;;;0.90;;
48733;SDS011;34530;52.084;5.146;2022-07-06T11:45:56;2.45;;;0.80;;
48733;SDS011;34530;52.084;5.146;2022-07-06T11:48:22;4.20;;;0.90;;
48733;SDS011;34530;52.084;5.146;2022-07-06T11:50:57;2.85;;;0.90;;
48733;SDS011;34530;52.084;5.146;2022-07-06T11:53:27;4.60;;;0.90;;
48733;SDS011;34530;52.084;5.146;2022-07-06T11:55:53;3.80;;;0.95;;
48733;SDS011;34530;52.084;5.146;2022-07-06T11:58:23;5.78;;;0.90;;
48733;SDS011;34530;52.084;5.146;2022-07-06T12:03:29;7.00;;;0.90;;
48733;SDS011;34530;52.084;5.146;2022-07-06T12:05:57;4.45;;;1.00;;
48733;SDS011;34530;52.084;5.146;2022-07-06T12:08:23;1.33;;;0.70;;
48733;SDS011;34530;52.084;5.146;2022-07-06T12:10:49;2.67;;;0.90;;
48733;SDS011;34530;52.084;5.146;2022-07-06T12:13:14;2.88;;;0.50;;
48733;SDS011;34530;52.084;5.146;2022-07-06T12:15:40;1.17;;;0.70;;
48733;SDS011;34530;52.084;5.146;2022-07-06T12:18:06;4.55;;;1.00;;
48733;SDS011;34530;52.084;5.146;2022-07-06T12:20:31;9.35;;;1.23;;
48733;SDS011;34530;52.084;5.146;2022-07-06T12:23:01;2.75;;;0.90;;
48733;SDS011;34530;52.084;5.146;2022-07-06T12:25:34;2.92;;;0.98;;
48733;SDS011;34530;52.084;5.146;2022-07-06T12:28:00;3.25;;;0.70;;
48733;SDS011;34530;52.084;5.146;2022-07-06T12:30:26;1.67;;;0.80;;
48733;SDS011;34530;52.084;5.146;2022-07-06T12:35:38;4.00;;;0.98;;
48733;SDS011;34530;52.084;5.146;2022-07-06T12:38:04;2.40;;;0.80;;
48733;SDS011;34530;52.084;5.146;2022-07-06T12:40:30;2.10;;;0.70;;
48733;SDS011;34530;52.084;5.146;2022-07-06T12:42:56;5.32;;;0.93;;
48733;SDS011;34530;52.084;5.146;2022-07-06T12:45:28;2.53;;;0.73;;
48733;SDS011;34530;52.084;5.146;2022-07-06T12:48:02;2.22;;;0.93;;
48733;SDS011;34530;52.084;5.146;2022-07-06T12:50:33;2.30;;;0.85;;
48733;SDS011;34530;52.084;5.146;2022-07-06T12:53:03;3.00;;;1.05;;
48733;SDS011;34530;52.084;5.146;2022-07-06T12:55:30;2.60;;;0.80;;
48733;SDS011;34530;52.084;5.146;2022-07-06T12:57:56;1.45;;;0.88;;
48733;SDS011;34530;52.084;5.146;2022-07-06T13:00:23;5.13;;;1.10;;
48733;SDS011;34530;52.084;5.146;2022-07-06T13:02:50;3.20;;;0.88;;
48733;SDS011;34530;52.084;5.146;2022-07-06T13:05:24;4.05;;;0.90;;
48733;SDS011;34530;52.084;5.146;2022-07-06T13:07:54;2.65;;;1.00;;
48733;SDS011;34530;52.084;5.146;2022-07-06T13:10:22;3.70;;;0.90;;
48733;SDS011;34530;52.084;5.146;2022-07-06T13:12:48;3.38;;;0.80;;
48733;SDS011;34530;52.084;5.146;2022-07-06T13:15:14;2.17;;;0.80;;
48733;SDS011;34530;52.084;5.146;2022-07-06T13:17:40;1.55;;;0.80;;
48733;SDS011;34530;52.084;5.146;2022-07-06T13:20:07;4.57;;;1.10;;
48733;SDS011;34530;52.084;5.146;2022-07-06T13:22:34;1.80;;;0.73;;
48733;SDS011;34530;52.084;5.146;2022-07-06T13:25:00;2.08;;;0.85;;
48733;SDS011;34530;52.084;5.146;2022-07-06T13:27:25;1.90;;;0.73;;
48733;SDS011;34530;52.084;5.146;2022-07-06T13:29:51;3.47;;;0.65;;
48733;SDS011;34530;52.084;5.146;2022-07-06T13:32:17;2.42;;;0.90;;
48733;SDS011;34530;52.084;5.146;2022-07-06T13:34:42;3.60;;;1.08;;
48733;SDS011;34530;52.084;5.146;2022-07-06T13:37:08;4.88;;;0.90;;
48733;SDS011;34530;52.084;5.146;2022-07-06T13:39:33;3.00;;;0.85;;
48733;SDS011;34530;52.084;5.146;2022-07-06T13:41:59;2.78;;;1.25;;
48733;SDS011;34530;52.084;5.146;2022-07-06T13:44:25;1.70;;;0.98;;
48733;SDS011;34530;52.084;5.146;2022-07-06T13:46:50;2.47;;;0.90;;
48733;SDS011;34530;52.084;5.146;2022-07-06T13:49:16;2.65;;;0.80;;
48733;SDS011;34530;52.084;5.146;2022-07-06T13:51:42;3.78;;;1.20;;
48733;SDS011;34530;52.084;5.146;2022-07-06T13:54:08;2.75;;;1.00;;
48733;SDS011;34530;52.084;5.146;2022-07-06T13:56:34;3.00;;;0.90;;
48733;SDS011;34530;52.084;5.146;2022-07-06T13:59:01;2.83;;;1.00;;
48733;SDS011;34530;52.084;5.146;2022-07-06T14:01:27;4.15;;;1.00;;
48733;SDS011;34530;52.084;5.146;2022-07-06T14:03:53;5.07;;;1.20;;
48733;SDS011;34530;52.084;5.146;2022-07-06T14:06:18;1.50;;;0.70;;
48733;SDS011;34530;52.084;5.146;2022-07-06T14:08:45;1.30;;;0.90;;
48733;SDS011;34530;52.084;5.146;2022-07-06T14:11:11;6.22;;;1.58;;
48733;SDS011;34530;52.084;5.146;2022-07-06T14:13:37;2.90;;;1.17;;
48733;SDS011;34530;52.084;5.146;2022-07-06T14:16:03;5.20;;;1.55;;
48733;SDS011;34530;52.084;5.146;2022-07-06T14:18:31;2.42;;;1.30;;
48733;SDS011;34530;52.084;5.146;2022-07-06T14:20:57;3.33;;;1.10;;
48733;SDS011;34530;52.084;5.146;2022-07-06T14:23:25;6.50;;;1.25;;
48733;SDS011;34530;52.084;5.146;2022-07-06T14:25:51;1.95;;;1.08;;
48733;SDS011;34530;52.084;5.146;2022-07-06T14:28:17;2.83;;;0.90;;
48733;SDS011;34530;52.084;5.146;2022-07-06T14:30:43;2.75;;;1.25;;
48733;SDS011;34530;52.084;5.146;2022-07-06T14:33:10;2.78;;;1.13;;
48733;SDS011;34530;52.084;5.146;2022-07-06T14:35:44;2.17;;;1.08;;
48733;SDS011;34530;52.084;5.146;2022-07-06T14:38:13;2.13;;;1.02;;
48733;SDS011;34530;52.084;5.146;2022-07-06T14:40:39;3.88;;;1.00;;
48733;SDS011;34530;52.084;5.146;2022-07-06T14:43:05;3.38;;;1.40;;
48733;SDS011;34530;52.084;5.146;2022-07-06T14:45:31;2.63;;;1.38;;
48733;SDS011;34530;52.084;5.146;2022-07-06T14:47:57;2.38;;;0.90;;
48733;SDS011;34530;52.084;5.146;2022-07-06T14:50:23;5.32;;;1.30;;
48733;SDS011;34530;52.084;5.146;2022-07-06T14:52:49;4.68;;;1.50;;
48733;SDS011;34530;52.084;5.146;2022-07-06T14:55:15;3.92;;;1.48;;
48733;SDS011;34530;52.084;5.146;2022-07-06T14:57:41;3.45;;;1.30;;
48733;SDS011;34530;52.084;5.146;2022-07-06T15:00:07;4.97;;;1.40;;